sensor_id;sensor_type;location;lat;lon;timestamp;temperature;humidity
9033;DHT22;4551;53.164;8.210;2023-04-24T00:01:51;11.70;99.90
9033;DHT22;4551;53.164;8.210;2023-04-24T00:04:19;11.70;99.90
9033;DHT22;4551;53.164;8.210;2023-04-24T00:06:47;11.70;99.90
9033;DHT22;4551;53.164;8.210;2023-04-24T00:09:20;11.70;99.90
9033;DHT22;4551;53.164;8.210;2023-04-24T00:11:48;11.70;99.90
9033;DHT22;4551;53.164;8.210;2023-04-24T00:14:17;11.60;99.90
9033;DHT22;4551;53.164;8.210;2023-04-24T00:16:46;11.60;99.90
9033;DHT22;4551;53.164;8.210;2023-04-24T00:19:14;11.50;99.90
9033;DHT22;4551;53.164;8.210;2023-04-24T00:21:43;11.50;99.90
9033;DHT22;4551;53.164;8.210;2023-04-24T00:24:11;11.40;99.90
9033;DHT22;4551;53.164;8.210;2023-04-24T00:26:39;11.40;99.90
9033;DHT22;4551;53.164;8.210;2023-04-24T00:29:07;11.30;99.90
9033;DHT22;4551;53.164;8.210;2023-04-24T00:31:39;11.10;99.90
9033;DHT22;4551;53.164;8.210;2023-04-24T00:34:07;11.10;99.90
9033;DHT22;4551;53.164;8.210;2023-04-24T00:36:37;11.00;99.90
9033;DHT22;4551;53.164;8.210;2023-04-24T00:39:05;11.00;99.90
9033;DHT22;4551;53.164;8.210;2023-04-24T00:41:35;10.90;99.90
9033;DHT22;4551;53.164;8.210;2023-04-24T00:44:03;10.90;99.90
9033;DHT22;4551;53.164;8.210;2023-04-24T00:46:31;10.80;99.90
9033;DHT22;4551;53.164;8.210;2023-04-24T00:49:01;10.80;99.90
9033;DHT22;4551;53.164;8.210;2023-04-24T00:51:30;10.70;99.90
9033;DHT22;4551;53.164;8.210;2023-04-24T00:53:59;10.70;99.90
9033;DHT22;4551;53.164;8.210;2023-04-24T00:56:27;10.70;99.90
9033;DHT22;4551;53.164;8.210;2023-04-24T00:58:56;10.70;99.90
9033;DHT22;4551;53.164;8.210;2023-04-24T01:01:24;10.70;99.90
9033;DHT22;4551;53.164;8.210;2023-04-24T01:03:52;10.60;99.90
9033;DHT22;4551;53.164;8.210;2023-04-24T01:06:22;10.60;99.90
9033;DHT22;4551;53.164;8.210;2023-04-24T01:08:51;10.60;99.90
9033;DHT22;4551;53.164;8.210;2023-04-24T01:11:19;10.60;99.90
9033;DHT22;4551;53.164;8.210;2023-04-24T01:13:48;10.50;99.90
9033;DHT22;4551;53.164;8.210;2023-04-24T01:16:16;10.50;99.90
9033;DHT22;4551;53.164;8.210;2023-04-24T01:18:47;10.50;99.90
9033;DHT22;4551;53.164;8.210;2023-04-24T01:21:15;10.40;99.90
9033;DHT22;4551;53.164;8.210;2023-04-24T01:23:45;10.40;99.90
9033;DHT22;4551;53.164;8.210;2023-04-24T01:26:16;10.40;99.90
9033;DHT22;4551;53.164;8.210;2023-04-24T01:28:46;10.40;99.90
9033;DHT22;4551;53.164;8.210;2023-04-24T01:31:15;10.40;99.90
9033;DHT22;4551;53.164;8.210;2023-04-24T01:33:43;10.40;99.90
9033;DHT22;4551;53.164;8.210;2023-04-24T01:36:15;10.40;99.90
9033;DHT22;4551;53.164;8.210;2023-04-24T01:38:45;11.80;99.90
9033;DHT22;4551;53.164;8.210;2023-04-24T01:41:13;10.50;99.90
9033;DHT22;4551;53.164;8.210;2023-04-24T01:43:41;10.50;99.90
9033;DHT22;4551;53.164;8.210;2023-04-24T01:46:13;10.50;99.90
9033;DHT22;4551;53.164;8.210;2023-04-24T01:48:41;10.50;99.90
9033;DHT22;4551;53.164;8.210;2023-04-24T01:51:09;10.50;99.90
9033;DHT22;4551;53.164;8.210;2023-04-24T01:53:37;10.50;99.90
9033;DHT22;4551;53.164;8.210;2023-04-24T01:56:06;10.50;99.90
9033;DHT22;4551;53.164;8.210;2023-04-24T01:58:35;10.50;99.90
9033;DHT22;4551;53.164;8.210;2023-04-24T02:01:03;10.50;99.90
9033;DHT22;4551;53.164;8.210;2023-04-24T02:03:31;10.50;99.90
9033;DHT22;4551;53.164;8.210;2023-04-24T02:06:00;10.50;99.90
9033;DHT22;4551;53.164;8.210;2023-04-24T02:08:28;10.50;99.90
9033;DHT22;4551;53.164;8.210;2023-04-24T02:10:56;10.50;99.90
9033;DHT22;4551;53.164;8.210;2023-04-24T02:13:25;10.50;99.90
9033;DHT22;4551;53.164;8.210;2023-04-24T02:15:53;10.40;99.90
9033;DHT22;4551;53.164;8.210;2023-04-24T02:18:23;10.40;99.90
9033;DHT22;4551;53.164;8.210;2023-04-24T02:20:51;10.30;99.90
9033;DHT22;4551;53.164;8.210;2023-04-24T02:23:19;10.40;99.90
9033;DHT22;4551;53.164;8.210;2023-04-24T02:25:47;10.40;99.90
9033;DHT22;4551;53.164;8.210;2023-04-24T02:28:15;10.40;99.90
9033;DHT22;4551;53.164;8.210;2023-04-24T02:30:44;10.40;99.90
9033;DHT22;4551;53.164;8.210;2023-04-24T02:33:13;10.30;99.90
9033;DHT22;4551;53.164;8.210;2023-04-24T02:35:41;10.40;99.90
9033;DHT22;4551;53.164;8.210;2023-04-24T02:38:09;10.30;99.90
9033;DHT22;4551;53.164;8.210;2023-04-24T02:40:37;10.30;99.90
9033;DHT22;4551;53.164;8.210;2023-04-24T02:43:05;10.30;99.90
9033;DHT22;4551;53.164;8.210;2023-04-24T02:45:33;10.30;99.90
9033;DHT22;4551;53.164;8.210;2023-04-24T02:48:03;10.30;99.90
9033;DHT22;4551;53.164;8.210;2023-04-24T02:50:31;10.30;99.90
9033;DHT22;4551;53.164;8.210;2023-04-24T02:53:00;10.30;99.90
9033;DHT22;4551;53.164;8.210;2023-04-24T02:55:28;10.30;99.90
9033;DHT22;4551;53.164;8.210;2023-04-24T02:57:56;10.20;99.90
9033;DHT22;4551;53.164;8.210;2023-04-24T03:00:25;10.20;99.90
9033;DHT22;4551;53.164;8.210;2023-04-24T03:02:53;10.20;99.90
9033;DHT22;4551;53.164;8.210;2023-04-24T03:05:22;10.20;99.90
9033;DHT22;4551;53.164;8.210;2023-04-24T03:07:50;10.20;99.90
9033;DHT22;4551;53.164;8.210;2023-04-24T03:10:19;10.10;99.90
9033;DHT22;4551;53.164;8.210;2023-04-24T03:12:49;10.10;99.90
9033;DHT22;4551;53.164;8.210;2023-04-24T03:15:18;10.10;99.90
9033;DHT22;4551;53.164;8.210;2023-04-24T03:17:46;10.10;99.90
9033;DHT22;4551;53.164;8.210;2023-04-24T03:20:14;10.20;99.90
9033;DHT22;4551;53.164;8.210;2023-04-24T03:22:44;10.20;99.90
9033;DHT22;4551;53.164;8.210;2023-04-24T03:25:12;10.20;99.90
9033;DHT22;4551;53.164;8.210;2023-04-24T03:27:40;10.20;99.90
9033;DHT22;4551;53.164;8.210;2023-04-24T03:30:11;10.20;99.90
9033;DHT22;4551;53.164;8.210;2023-04-24T03:32:39;10.20;99.90
9033;DHT22;4551;53.164;8.210;2023-04-24T03:35:07;10.20;99.90
9033;DHT22;4551;53.164;8.210;2023-04-24T03:37:36;10.20;99.90
9033;DHT22;4551;53.164;8.210;2023-04-24T03:40:06;10.20;99.90
9033;DHT22;4551;53.164;8.210;2023-04-24T03:42:34;10.20;99.90
9033;DHT22;4551;53.164;8.210;2023-04-24T03:45:05;10.20;99.90
9033;DHT22;4551;53.164;8.210;2023-04-24T03:47:35;10.20;99.90
9033;DHT22;4551;53.164;8.210;2023-04-24T03:50:03;10.20;99.90
9033;DHT22;4551;53.164;8.210;2023-04-24T03:52:32;10.20;99.90
9033;DHT22;4551;53.164;8.210;2023-04-24T03:55:00;10.20;99.90
9033;DHT22;4551;53.164;8.210;2023-04-24T03:57:29;10.20;99.90
9033;DHT22;4551;53.164;8.210;2023-04-24T03:59:57;10.20;99.90
9033;DHT22;4551;53.164;8.210;2023-04-24T04:02:25;10.20;99.90
9033;DHT22;4551;53.164;8.210;2023-04-24T04:04:53;10.20;99.90
9033;DHT22;4551;53.164;8.210;2023-04-24T04:07:22;10.20;99.90
9033;DHT22;4551;53.164;8.210;2023-04-24T04:09:49;10.20;99.90
9033;DHT22;4551;53.164;8.210;2023-04-24T04:12:17;10.20;99.90
9033;DHT22;4551;53.164;8.210;2023-04-24T04:14:47;10.10;99.90
9033;DHT22;4551;53.164;8.210;2023-04-24T04:17:15;10.10;99.90
9033;DHT22;4551;53.164;8.210;2023-04-24T04:19:43;10.10;99.90
9033;DHT22;4551;53.164;8.210;2023-04-24T04:22:11;10.10;99.90
9033;DHT22;4551;53.164;8.210;2023-04-24T04:24:40;10.10;99.90
9033;DHT22;4551;53.164;8.210;2023-04-24T04:27:10;10.10;99.90
9033;DHT22;4551;53.164;8.210;2023-04-24T04:29:41;10.10;99.90
9033;DHT22;4551;53.164;8.210;2023-04-24T04:32:12;10.10;99.90
9033;DHT22;4551;53.164;8.210;2023-04-24T04:34:40;10.10;99.90
9033;DHT22;4551;53.164;8.210;2023-04-24T04:37:12;10.10;99.90
9033;DHT22;4551;53.164;8.210;2023-04-24T04:39:42;10.00;99.90
9033;DHT22;4551;53.164;8.210;2023-04-24T04:42:13;10.00;99.90
9033;DHT22;4551;53.164;8.210;2023-04-24T04:44:42;10.00;99.90
9033;DHT22;4551;53.164;8.210;2023-04-24T04:47:15;10.00;99.90
9033;DHT22;4551;53.164;8.210;2023-04-24T04:49:44;10.00;99.90
9033;DHT22;4551;53.164;8.210;2023-04-24T04:52:14;10.00;99.90
9033;DHT22;4551;53.164;8.210;2023-04-24T04:54:43;10.00;99.90
9033;DHT22;4551;53.164;8.210;2023-04-24T04:57:12;10.00;99.90
9033;DHT22;4551;53.164;8.210;2023-04-24T04:59:41;9.90;99.90
9033;DHT22;4551;53.164;8.210;2023-04-24T05:02:09;9.90;99.90
9033;DHT22;4551;53.164;8.210;2023-04-24T05:04:38;9.90;99.90
9033;DHT22;4551;53.164;8.210;2023-04-24T05:07:07;9.90;99.90
9033;DHT22;4551;53.164;8.210;2023-04-24T05:09:37;9.90;99.90
9033;DHT22;4551;53.164;8.210;2023-04-24T05:12:05;9.80;99.90
9033;DHT22;4551;53.164;8.210;2023-04-24T05:14:34;9.90;99.90
9033;DHT22;4551;53.164;8.210;2023-04-24T05:17:02;9.80;99.90
9033;DHT22;4551;53.164;8.210;2023-04-24T05:19:30;9.80;99.90
9033;DHT22;4551;53.164;8.210;2023-04-24T05:22:04;9.90;99.90
9033;DHT22;4551;53.164;8.210;2023-04-24T05:24:34;9.90;99.90
9033;DHT22;4551;53.164;8.210;2023-04-24T05:27:03;9.90;99.90
9033;DHT22;4551;53.164;8.210;2023-04-24T05:29:31;9.90;99.90
9033;DHT22;4551;53.164;8.210;2023-04-24T05:32:00;9.90;99.90
9033;DHT22;4551;53.164;8.210;2023-04-24T05:34:28;9.90;99.90
9033;DHT22;4551;53.164;8.210;2023-04-24T05:36:56;9.90;99.90
9033;DHT22;4551;53.164;8.210;2023-04-24T05:39:26;9.90;99.90
9033;DHT22;4551;53.164;8.210;2023-04-24T05:41:54;9.90;99.90
9033;DHT22;4551;53.164;8.210;2023-04-24T05:44:24;9.90;99.90
9033;DHT22;4551;53.164;8.210;2023-04-24T05:46:52;9.90;99.90
9033;DHT22;4551;53.164;8.210;2023-04-24T05:49:23;9.90;99.90
9033;DHT22;4551;53.164;8.210;2023-04-24T05:51:55;9.90;99.90
9033;DHT22;4551;53.164;8.210;2023-04-24T05:54:37;9.90;99.90
9033;DHT22;4551;53.164;8.210;2023-04-24T05:57:05;9.90;99.90
9033;DHT22;4551;53.164;8.210;2023-04-24T05:59:36;9.90;99.90
9033;DHT22;4551;53.164;8.210;2023-04-24T06:02:15;10.00;99.90
9033;DHT22;4551;53.164;8.210;2023-04-24T06:04:49;10.00;99.90
9033;DHT22;4551;53.164;8.210;2023-04-24T06:07:18;10.00;99.90
9033;DHT22;4551;53.164;8.210;2023-04-24T06:09:48;10.00;99.90
9033;DHT22;4551;53.164;8.210;2023-04-24T06:12:16;10.00;99.90
9033;DHT22;4551;53.164;8.210;2023-04-24T06:14:53;10.10;99.90
9033;DHT22;4551;53.164;8.210;2023-04-24T06:17:22;10.00;99.90
9033;DHT22;4551;53.164;8.210;2023-04-24T06:19:50;10.00;99.90
9033;DHT22;4551;53.164;8.210;2023-04-24T06:22:21;10.10;99.90
9033;DHT22;4551;53.164;8.210;2023-04-24T06:24:50;10.10;99.90
9033;DHT22;4551;53.164;8.210;2023-04-24T06:27:18;10.10;99.90
9033;DHT22;4551;53.164;8.210;2023-04-24T06:29:46;10.10;99.90
9033;DHT22;4551;53.164;8.210;2023-04-24T06:32:21;10.10;99.90
9033;DHT22;4551;53.164;8.210;2023-04-24T06:34:50;10.10;99.90
9033;DHT22;4551;53.164;8.210;2023-04-24T06:37:18;10.10;99.90
9033;DHT22;4551;53.164;8.210;2023-04-24T06:39:47;10.10;99.90
9033;DHT22;4551;53.164;8.210;2023-04-24T06:42:19;10.10;99.90
9033;DHT22;4551;53.164;8.210;2023-04-24T06:44:51;10.10;99.90
9033;DHT22;4551;53.164;8.210;2023-04-24T06:47:19;10.10;99.90
9033;DHT22;4551;53.164;8.210;2023-04-24T06:49:51;10.00;99.90
9033;DHT22;4551;53.164;8.210;2023-04-24T06:52:20;10.10;99.90
9033;DHT22;4551;53.164;8.210;2023-04-24T06:54:49;10.10;99.90
9033;DHT22;4551;53.164;8.210;2023-04-24T06:57:18;10.10;99.90
9033;DHT22;4551;53.164;8.210;2023-04-24T06:59:50;10.20;99.90
9033;DHT22;4551;53.164;8.210;2023-04-24T07:02:18;10.20;99.90
9033;DHT22;4551;53.164;8.210;2023-04-24T07:04:46;10.20;99.90
9033;DHT22;4551;53.164;8.210;2023-04-24T07:07:15;10.30;99.90
9033;DHT22;4551;53.164;8.210;2023-04-24T07:09:46;10.30;99.90
9033;DHT22;4551;53.164;8.210;2023-04-24T07:12:15;10.30;99.90
9033;DHT22;4551;53.164;8.210;2023-04-24T07:14:48;10.30;99.90
9033;DHT22;4551;53.164;8.210;2023-04-24T07:17:16;10.30;99.90
9033;DHT22;4551;53.164;8.210;2023-04-24T07:19:44;10.30;99.90
9033;DHT22;4551;53.164;8.210;2023-04-24T07:22:12;10.30;99.90
9033;DHT22;4551;53.164;8.210;2023-04-24T07:24:43;10.30;99.90
9033;DHT22;4551;53.164;8.210;2023-04-24T07:27:14;10.20;99.90
9033;DHT22;4551;53.164;8.210;2023-04-24T07:29:42;10.20;99.90
9033;DHT22;4551;53.164;8.210;2023-04-24T07:32:12;10.30;99.90
9033;DHT22;4551;53.164;8.210;2023-04-24T07:34:40;10.30;99.90
9033;DHT22;4551;53.164;8.210;2023-04-24T07:37:08;10.30;99.90
9033;DHT22;4551;53.164;8.210;2023-04-24T07:39:36;10.20;99.90
9033;DHT22;4551;53.164;8.210;2023-04-24T07:42:05;10.20;99.90
9033;DHT22;4551;53.164;8.210;2023-04-24T07:44:33;10.30;99.90
9033;DHT22;4551;53.164;8.210;2023-04-24T07:47:01;10.30;99.90
9033;DHT22;4551;53.164;8.210;2023-04-24T07:49:31;10.30;99.90
9033;DHT22;4551;53.164;8.210;2023-04-24T07:52:00;10.30;99.90
9033;DHT22;4551;53.164;8.210;2023-04-24T07:54:29;10.30;99.90
9033;DHT22;4551;53.164;8.210;2023-04-24T07:56:57;10.40;99.90
9033;DHT22;4551;53.164;8.210;2023-04-24T07:59:25;10.40;99.90
9033;DHT22;4551;53.164;8.210;2023-04-24T08:01:53;10.40;99.90
9033;DHT22;4551;53.164;8.210;2023-04-24T08:04:22;10.50;99.90
9033;DHT22;4551;53.164;8.210;2023-04-24T08:06:52;10.50;99.90
9033;DHT22;4551;53.164;8.210;2023-04-24T08:09:20;10.50;99.90
9033;DHT22;4551;53.164;8.210;2023-04-24T08:11:48;10.60;99.90
9033;DHT22;4551;53.164;8.210;2023-04-24T08:14:16;10.60;99.90
9033;DHT22;4551;53.164;8.210;2023-04-24T08:16:46;10.60;99.90
9033;DHT22;4551;53.164;8.210;2023-04-24T08:19:14;10.70;99.90
9033;DHT22;4551;53.164;8.210;2023-04-24T08:21:42;10.60;99.90
9033;DHT22;4551;53.164;8.210;2023-04-24T08:24:12;10.70;99.90
9033;DHT22;4551;53.164;8.210;2023-04-24T08:26:41;10.70;99.90
9033;DHT22;4551;53.164;8.210;2023-04-24T08:29:09;10.70;99.90
9033;DHT22;4551;53.164;8.210;2023-04-24T08:31:37;10.80;99.90
9033;DHT22;4551;53.164;8.210;2023-04-24T08:34:06;10.80;99.90
9033;DHT22;4551;53.164;8.210;2023-04-24T08:36:34;10.80;99.90
9033;DHT22;4551;53.164;8.210;2023-04-24T08:39:14;10.80;99.90
9033;DHT22;4551;53.164;8.210;2023-04-24T08:41:42;10.80;99.90
9033;DHT22;4551;53.164;8.210;2023-04-24T08:44:12;10.80;99.90
9033;DHT22;4551;53.164;8.210;2023-04-24T08:46:42;10.80;99.90
9033;DHT22;4551;53.164;8.210;2023-04-24T08:49:10;10.80;99.90
9033;DHT22;4551;53.164;8.210;2023-04-24T08:51:39;10.80;99.90
9033;DHT22;4551;53.164;8.210;2023-04-24T08:54:07;10.80;99.90
9033;DHT22;4551;53.164;8.210;2023-04-24T08:56:37;10.80;99.90
9033;DHT22;4551;53.164;8.210;2023-04-24T08:59:06;10.80;99.90
9033;DHT22;4551;53.164;8.210;2023-04-24T09:01:35;10.70;99.90
9033;DHT22;4551;53.164;8.210;2023-04-24T09:04:08;10.70;99.90
9033;DHT22;4551;53.164;8.210;2023-04-24T09:06:38;10.70;99.90
9033;DHT22;4551;53.164;8.210;2023-04-24T09:09:06;10.80;99.90
9033;DHT22;4551;53.164;8.210;2023-04-24T09:11:35;10.70;99.90
9033;DHT22;4551;53.164;8.210;2023-04-24T09:14:05;10.60;99.90
9033;DHT22;4551;53.164;8.210;2023-04-24T09:16:36;10.60;99.90
9033;DHT22;4551;53.164;8.210;2023-04-24T09:19:07;10.60;99.90
9033;DHT22;4551;53.164;8.210;2023-04-24T09:21:35;10.50;99.90
9033;DHT22;4551;53.164;8.210;2023-04-24T09:24:03;10.40;99.90
9033;DHT22;4551;53.164;8.210;2023-04-24T09:26:32;10.50;99.90
9033;DHT22;4551;53.164;8.210;2023-04-24T09:29:00;10.50;99.90
9033;DHT22;4551;53.164;8.210;2023-04-24T09:31:30;10.50;99.90
9033;DHT22;4551;53.164;8.210;2023-04-24T09:33:58;10.40;99.90
9033;DHT22;4551;53.164;8.210;2023-04-24T09:36:37;10.30;99.90
9033;DHT22;4551;53.164;8.210;2023-04-24T09:39:07;10.20;99.90
9033;DHT22;4551;53.164;8.210;2023-04-24T09:41:43;10.80;99.90
9033;DHT22;4551;53.164;8.210;2023-04-24T09:44:12;10.30;99.90
9033;DHT22;4551;53.164;8.210;2023-04-24T09:46:42;10.20;99.90
9033;DHT22;4551;53.164;8.210;2023-04-24T09:49:11;10.30;99.90
9033;DHT22;4551;53.164;8.210;2023-04-24T09:51:39;10.20;99.90
9033;DHT22;4551;53.164;8.210;2023-04-24T09:54:13;10.20;99.90
9033;DHT22;4551;53.164;8.210;2023-04-24T09:56:45;10.20;99.90
9033;DHT22;4551;53.164;8.210;2023-04-24T09:59:14;10.30;99.90
9033;DHT22;4551;53.164;8.210;2023-04-24T10:01:44;10.30;99.90
9033;DHT22;4551;53.164;8.210;2023-04-24T10:04:15;10.20;99.90
9033;DHT22;4551;53.164;8.210;2023-04-24T10:06:44;10.20;99.90
9033;DHT22;4551;53.164;8.210;2023-04-24T10:09:12;10.10;99.90
9033;DHT22;4551;53.164;8.210;2023-04-24T10:11:41;10.00;99.90
9033;DHT22;4551;53.164;8.210;2023-04-24T10:14:09;10.00;99.90
9033;DHT22;4551;53.164;8.210;2023-04-24T10:16:39;10.00;99.90
9033;DHT22;4551;53.164;8.210;2023-04-24T10:19:09;10.00;99.90
9033;DHT22;4551;53.164;8.210;2023-04-24T10:21:37;10.00;99.90
9033;DHT22;4551;53.164;8.210;2023-04-24T10:24:09;10.00;99.90
9033;DHT22;4551;53.164;8.210;2023-04-24T10:26:37;10.10;99.90
9033;DHT22;4551;53.164;8.210;2023-04-24T10:29:08;10.20;99.90
9033;DHT22;4551;53.164;8.210;2023-04-24T10:31:39;10.20;99.90
9033;DHT22;4551;53.164;8.210;2023-04-24T10:34:09;10.10;99.90
9033;DHT22;4551;53.164;8.210;2023-04-24T10:36:38;10.20;99.90
9033;DHT22;4551;53.164;8.210;2023-04-24T10:39:08;10.10;99.90
9033;DHT22;4551;53.164;8.210;2023-04-24T10:41:38;10.10;99.90
9033;DHT22;4551;53.164;8.210;2023-04-24T10:44:06;10.10;99.90
9033;DHT22;4551;53.164;8.210;2023-04-24T10:46:35;10.10;99.90
9033;DHT22;4551;53.164;8.210;2023-04-24T10:49:04;10.10;99.90
9033;DHT22;4551;53.164;8.210;2023-04-24T10:51:47;10.00;99.90
9033;DHT22;4551;53.164;8.210;2023-04-24T10:54:22;10.00;99.90
9033;DHT22;4551;53.164;8.210;2023-04-24T10:56:50;9.90;99.90
9033;DHT22;4551;53.164;8.210;2023-04-24T10:59:25;9.90;99.90
9033;DHT22;4551;53.164;8.210;2023-04-24T11:01:53;9.90;99.90
9033;DHT22;4551;53.164;8.210;2023-04-24T11:04:33;9.90;99.90
9033;DHT22;4551;53.164;8.210;2023-04-24T11:07:03;9.90;99.90
9033;DHT22;4551;53.164;8.210;2023-04-24T11:09:31;9.90;99.90
9033;DHT22;4551;53.164;8.210;2023-04-24T11:12:05;9.80;99.90
9033;DHT22;4551;53.164;8.210;2023-04-24T11:17:29;9.60;99.90
9033;DHT22;4551;53.164;8.210;2023-04-24T11:20:00;9.60;99.90
9033;DHT22;4551;53.164;8.210;2023-04-24T11:22:52;9.60;99.90
9033;DHT22;4551;53.164;8.210;2023-04-24T11:25:21;9.70;99.90
9033;DHT22;4551;53.164;8.210;2023-04-24T11:27:50;9.60;99.90
9033;DHT22;4551;53.164;8.210;2023-04-24T11:30:20;9.50;99.90
9033;DHT22;4551;53.164;8.210;2023-04-24T11:32:48;9.50;99.90
9033;DHT22;4551;53.164;8.210;2023-04-24T11:35:20;9.50;99.90
9033;DHT22;4551;53.164;8.210;2023-04-24T11:37:53;9.50;99.90
9033;DHT22;4551;53.164;8.210;2023-04-24T11:40:41;9.50;99.90
9033;DHT22;4551;53.164;8.210;2023-04-24T11:43:09;9.60;99.90
9033;DHT22;4551;53.164;8.210;2023-04-24T11:45:38;9.60;99.90
9033;DHT22;4551;53.164;8.210;2023-04-24T11:48:18;9.60;99.90
9033;DHT22;4551;53.164;8.210;2023-04-24T11:50:49;9.70;99.90
9033;DHT22;4551;53.164;8.210;2023-04-24T11:53:19;9.80;99.90
9033;DHT22;4551;53.164;8.210;2023-04-24T11:55:48;9.80;99.90
9033;DHT22;4551;53.164;8.210;2023-04-24T11:58:16;9.90;99.90
9033;DHT22;4551;53.164;8.210;2023-04-24T12:00:54;9.90;99.90
9033;DHT22;4551;53.164;8.210;2023-04-24T12:03:23;9.10;99.90
9033;DHT22;4551;53.164;8.210;2023-04-24T12:05:52;9.80;99.90
9033;DHT22;4551;53.164;8.210;2023-04-24T12:08:28;9.70;99.90
9033;DHT22;4551;53.164;8.210;2023-04-24T12:10:56;9.60;99.90
9033;DHT22;4551;53.164;8.210;2023-04-24T12:13:26;9.50;99.90
9033;DHT22;4551;53.164;8.210;2023-04-24T12:15:54;9.50;99.90
9033;DHT22;4551;53.164;8.210;2023-04-24T12:18:22;9.40;99.90
9033;DHT22;4551;53.164;8.210;2023-04-24T12:20:50;9.30;99.90
9033;DHT22;4551;53.164;8.210;2023-04-24T12:26:14;9.10;99.90
9033;DHT22;4551;53.164;8.210;2023-04-24T12:28:46;9.00;99.90
9033;DHT22;4551;53.164;8.210;2023-04-24T12:31:14;9.00;99.90
9033;DHT22;4551;53.164;8.210;2023-04-24T12:33:43;8.90;99.90
9033;DHT22;4551;53.164;8.210;2023-04-24T12:36:11;8.80;99.90
9033;DHT22;4551;53.164;8.210;2023-04-24T12:38:43;8.80;99.90
9033;DHT22;4551;53.164;8.210;2023-04-24T12:41:14;8.80;99.90
9033;DHT22;4551;53.164;8.210;2023-04-24T12:43:52;8.80;99.90
9033;DHT22;4551;53.164;8.210;2023-04-24T12:46:20;8.80;99.90
9033;DHT22;4551;53.164;8.210;2023-04-24T12:48:48;8.70;99.90
9033;DHT22;4551;53.164;8.210;2023-04-24T12:51:17;8.70;99.90
9033;DHT22;4551;53.164;8.210;2023-04-24T12:53:45;8.70;99.90
9033;DHT22;4551;53.164;8.210;2023-04-24T12:56:14;8.60;99.90
9033;DHT22;4551;53.164;8.210;2023-04-24T12:58:43;8.60;99.90
9033;DHT22;4551;53.164;8.210;2023-04-24T13:01:11;8.60;99.90
9033;DHT22;4551;53.164;8.210;2023-04-24T13:03:39;8.60;99.90
9033;DHT22;4551;53.164;8.210;2023-04-24T13:06:08;8.60;99.90
9033;DHT22;4551;53.164;8.210;2023-04-24T13:08:37;8.60;99.90
9033;DHT22;4551;53.164;8.210;2023-04-24T13:11:04;8.60;99.90
9033;DHT22;4551;53.164;8.210;2023-04-24T13:13:34;8.70;99.90
9033;DHT22;4551;53.164;8.210;2023-04-24T13:16:02;8.70;99.90
9033;DHT22;4551;53.164;8.210;2023-04-24T13:18:30;8.70;99.90
9033;DHT22;4551;53.164;8.210;2023-04-24T13:20:59;8.10;99.90
9033;DHT22;4551;53.164;8.210;2023-04-24T13:23:27;8.70;99.90
9033;DHT22;4551;53.164;8.210;2023-04-24T13:25:55;8.70;99.90
9033;DHT22;4551;53.164;8.210;2023-04-24T13:28:27;8.70;99.90
9033;DHT22;4551;53.164;8.210;2023-04-24T13:30:57;8.60;99.90
9033;DHT22;4551;53.164;8.210;2023-04-24T13:33:26;8.50;99.90
9033;DHT22;4551;53.164;8.210;2023-04-24T13:35:54;8.50;99.90
9033;DHT22;4551;53.164;8.210;2023-04-24T13:38:22;8.70;99.90
9033;DHT22;4551;53.164;8.210;2023-04-24T13:40:50;8.50;99.90
9033;DHT22;4551;53.164;8.210;2023-04-24T13:43:20;8.50;99.90
9033;DHT22;4551;53.164;8.210;2023-04-24T13:45:49;8.50;99.90
9033;DHT22;4551;53.164;8.210;2023-04-24T13:48:18;8.60;99.90
9033;DHT22;4551;53.164;8.210;2023-04-24T13:50:48;8.40;99.90
9033;DHT22;4551;53.164;8.210;2023-04-24T13:53:16;8.60;99.90
9033;DHT22;4551;53.164;8.210;2023-04-24T13:55:44;8.60;99.90
9033;DHT22;4551;53.164;8.210;2023-04-24T13:58:12;8.60;99.90
9033;DHT22;4551;53.164;8.210;2023-04-24T14:00:41;8.60;99.90
9033;DHT22;4551;53.164;8.210;2023-04-24T14:03:09;8.60;99.90
9033;DHT22;4551;53.164;8.210;2023-04-24T14:05:39;8.60;99.90
9033;DHT22;4551;53.164;8.210;2023-04-24T14:08:07;8.60;99.90
9033;DHT22;4551;53.164;8.210;2023-04-24T14:10:35;8.60;99.90
9033;DHT22;4551;53.164;8.210;2023-04-24T14:13:03;8.60;99.90
9033;DHT22;4551;53.164;8.210;2023-04-24T14:15:31;8.70;99.90
9033;DHT22;4551;53.164;8.210;2023-04-24T14:17:59;8.70;99.90
9033;DHT22;4551;53.164;8.210;2023-04-24T14:20:29;8.70;99.90
9033;DHT22;4551;53.164;8.210;2023-04-24T14:23:00;8.70;99.90
9033;DHT22;4551;53.164;8.210;2023-04-24T14:25:29;8.70;99.90
9033;DHT22;4551;53.164;8.210;2023-04-24T14:27:57;8.70;99.90
9033;DHT22;4551;53.164;8.210;2023-04-24T14:30:26;8.70;99.90
9033;DHT22;4551;53.164;8.210;2023-04-24T14:32:54;8.60;99.90
9033;DHT22;4551;53.164;8.210;2023-04-24T14:35:22;8.60;99.90
9033;DHT22;4551;53.164;8.210;2023-04-24T14:37:50;8.60;99.90
9033;DHT22;4551;53.164;8.210;2023-04-24T14:40:19;8.50;99.90
9033;DHT22;4551;53.164;8.210;2023-04-24T14:43:08;8.40;99.90
9033;DHT22;4551;53.164;8.210;2023-04-24T14:45:36;8.40;99.90
9033;DHT22;4551;53.164;8.210;2023-04-24T14:48:04;8.40;99.90
9033;DHT22;4551;53.164;8.210;2023-04-24T14:50:32;8.40;99.90
9033;DHT22;4551;53.164;8.210;2023-04-24T14:53:00;8.40;99.90
9033;DHT22;4551;53.164;8.210;2023-04-24T14:55:30;8.40;99.90
9033;DHT22;4551;53.164;8.210;2023-04-24T14:57:59;8.40;99.90
9033;DHT22;4551;53.164;8.210;2023-04-24T15:00:28;8.50;99.90
9033;DHT22;4551;53.164;8.210;2023-04-24T15:02:56;8.50;99.90
9033;DHT22;4551;53.164;8.210;2023-04-24T15:05:24;8.50;99.90
9033;DHT22;4551;53.164;8.210;2023-04-24T15:07:55;8.50;99.90
9033;DHT22;4551;53.164;8.210;2023-04-24T15:10:25;8.50;99.90
9033;DHT22;4551;53.164;8.210;2023-04-24T15:12:58;8.50;99.90
9033;DHT22;4551;53.164;8.210;2023-04-24T15:15:26;8.50;99.90
9033;DHT22;4551;53.164;8.210;2023-04-24T15:17:56;8.50;99.90
9033;DHT22;4551;53.164;8.210;2023-04-24T15:20:24;8.40;99.90
9033;DHT22;4551;53.164;8.210;2023-04-24T15:22:54;8.40;99.90
9033;DHT22;4551;53.164;8.210;2023-04-24T15:25:26;8.40;99.90
9033;DHT22;4551;53.164;8.210;2023-04-24T15:27:54;8.40;99.90
9033;DHT22;4551;53.164;8.210;2023-04-24T15:30:24;8.40;99.90
9033;DHT22;4551;53.164;8.210;2023-04-24T15:32:55;8.40;99.90
9033;DHT22;4551;53.164;8.210;2023-04-24T15:35:23;8.40;99.90
9033;DHT22;4551;53.164;8.210;2023-04-24T15:37:51;8.70;99.90
9033;DHT22;4551;53.164;8.210;2023-04-24T15:40:19;8.40;99.90
9033;DHT22;4551;53.164;8.210;2023-04-24T15:42:48;8.40;99.90
9033;DHT22;4551;53.164;8.210;2023-04-24T15:45:17;8.40;99.90
9033;DHT22;4551;53.164;8.210;2023-04-24T15:47:49;8.40;99.90
9033;DHT22;4551;53.164;8.210;2023-04-24T15:50:17;8.40;99.90
9033;DHT22;4551;53.164;8.210;2023-04-24T15:52:48;8.40;99.90
9033;DHT22;4551;53.164;8.210;2023-04-24T15:55:16;8.40;99.90
9033;DHT22;4551;53.164;8.210;2023-04-24T15:57:44;8.40;99.90
9033;DHT22;4551;53.164;8.210;2023-04-24T16:00:12;8.40;99.90
9033;DHT22;4551;53.164;8.210;2023-04-24T16:02:42;8.40;99.90
9033;DHT22;4551;53.164;8.210;2023-04-24T16:05:11;8.40;99.90
9033;DHT22;4551;53.164;8.210;2023-04-24T16:07:41;8.40;99.90
9033;DHT22;4551;53.164;8.210;2023-04-24T16:10:10;8.30;99.90
9033;DHT22;4551;53.164;8.210;2023-04-24T16:12:38;8.30;99.90
9033;DHT22;4551;53.164;8.210;2023-04-24T16:15:08;8.30;99.90
9033;DHT22;4551;53.164;8.210;2023-04-24T16:17:37;8.30;99.90
9033;DHT22;4551;53.164;8.210;2023-04-24T16:20:05;8.30;99.90
9033;DHT22;4551;53.164;8.210;2023-04-24T16:22:35;8.30;99.90
9033;DHT22;4551;53.164;8.210;2023-04-24T16:25:03;8.30;99.90
9033;DHT22;4551;53.164;8.210;2023-04-24T16:27:31;8.30;99.90